createdAt,value
2023-03-31T00:01:04.592Z,100010.88
2023-03-31T00:04:09.771Z,100001.91
2023-03-31T00:07:16.879Z,100009.00
2023-03-31T00:10:20.089Z,99992.41
2023-03-31T00:13:26.367Z,100004.97
2023-03-31T00:16:30.442Z,99994.13
2023-03-31T00:19:34.072Z,100003.06
2023-03-31T00:22:42.093Z,100000.69
2023-03-31T00:25:46.302Z,99996.44
2023-03-31T00:28:52.423Z,99993.13
2023-03-31T00:31:57.285Z,99987.94
2023-03-31T00:35:02.355Z,99988.75
2023-03-31T00:38:08.999Z,99974.78
2023-03-31T00:41:12.206Z,99983.91
2023-03-31T00:44:22.644Z,99984.06
2023-03-31T00:47:28.085Z,99979.66
2023-03-31T00:50:36.972Z,99968.44
2023-03-31T00:53:43.511Z,99964.88
2023-03-31T00:56:49.949Z,99965.94
2023-03-31T00:59:58.470Z,99960.16
2023-03-31T01:03:10.105Z,99959.34
2023-03-31T01:06:19.716Z,99959.41
2023-03-31T01:09:26.824Z,99957.34
2023-03-31T01:12:32.833Z,99953.25
2023-03-31T01:15:36.297Z,99955.84
2023-03-31T01:18:40.082Z,99943.47
2023-03-31T01:22:46.827Z,99936.13
2023-03-31T01:26:45.482Z,99935.31
2023-03-31T01:30:38.320Z,99935.25
2023-03-31T01:34:24.780Z,99926.13
2023-03-31T01:38:31.399Z,99935.13
2023-03-31T01:41:57.132Z,99918.34
2023-03-31T01:45:12.286Z,99910.44
2023-03-31T01:48:18.660Z,99914.56
2023-03-31T01:51:33.283Z,99908.53
2023-03-31T01:54:43.169Z,99908.88
2023-03-31T01:57:52.166Z,99907.94
2023-03-31T02:01:02.056Z,99904.41
2023-03-31T02:04:13.201Z,99900.59
2023-03-31T02:07:20.709Z,99898.44
2023-03-31T02:10:27.474Z,99902.00
2023-03-31T02:13:41.490Z,99891.59
2023-03-31T02:16:48.043Z,99884.50
2023-03-31T02:19:54.568Z,99884.06
2023-03-31T02:23:03.455Z,99880.50
2023-03-31T02:26:12.280Z,99871.78
2023-03-31T02:29:16.990Z,99881.91
2023-03-31T02:32:25.665Z,99870.47
2023-03-31T02:35:30.784Z,99865.84
2023-03-31T02:38:38.706Z,99870.09
2023-03-31T02:41:42.952Z,99869.50
2023-03-31T02:44:50.608Z,99861.31
2023-03-31T02:47:53.976Z,99857.91
2023-03-31T02:51:35.474Z,99856.94
2023-03-31T02:55:04.468Z,99850.59
2023-03-31T02:58:36.042Z,99850.22
2023-03-31T03:01:53.638Z,99841.34
2023-03-31T03:05:13.658Z,99838.16
2023-03-31T03:08:37.989Z,99834.09
2023-03-31T03:11:52.897Z,99835.50
2023-03-31T03:15:01.735Z,99832.09
2023-03-31T03:18:07.830Z,99829.50
2023-03-31T03:21:11.037Z,99830.59
2023-03-31T03:24:14.449Z,99823.69
2023-03-31T03:27:17.411Z,99827.25
2023-03-31T03:30:20.914Z,99821.34
2023-03-31T03:33:28.207Z,99820.19
2023-03-31T03:36:33.090Z,99810.44
2023-03-31T03:39:38.643Z,99804.06
2023-03-31T03:42:41.645Z,99806.88
2023-03-31T03:45:49.376Z,99799.09
2023-03-31T03:48:53.773Z,99795.19
2023-03-31T03:51:57.828Z,99791.06
2023-03-31T03:55:02.868Z,99791.59
2023-03-31T03:58:06.851Z,99790.25
2023-03-31T04:01:10.590Z,99772.94
2023-03-31T04:04:18.291Z,99778.72
2023-03-31T04:07:21.334Z,99768.88
2023-03-31T04:10:24.511Z,99764.16
2023-03-31T04:13:29.786Z,99758.16
2023-03-31T04:16:34.579Z,99760.38
2023-03-31T04:19:50.765Z,99756.56
2023-03-31T04:22:58.142Z,99762.09
2023-03-31T04:26:02.766Z,99756.28
2023-03-31T04:29:07.472Z,99748.75
2023-03-31T04:32:15.357Z,99745.88
2023-03-31T04:35:20.884Z,99736.25
2023-03-31T04:39:09.014Z,99737.91
2023-03-31T04:42:12.329Z,99729.66
2023-03-31T04:45:15.833Z,99724.72
2023-03-31T04:48:19.066Z,99722.75
2023-03-31T04:51:23.752Z,99714.81
2023-03-31T04:54:26.782Z,99709.38
2023-03-31T04:57:29.942Z,99700.09
2023-03-31T05:00:43.241Z,99704.47
2023-03-31T05:03:49.101Z,99704.78
2023-03-31T05:06:53.975Z,99701.09
2023-03-31T05:09:56.947Z,99693.16
2023-03-31T05:12:59.905Z,99689.19
2023-03-31T05:16:09.070Z,99683.97
2023-03-31T05:19:14.285Z,99683.28
2023-03-31T05:22:20.621Z,99675.47
2023-03-31T05:25:24.147Z,99677.38
2023-03-31T05:28:32.433Z,99680.34
2023-03-31T05:31:35.961Z,99674.84
2023-03-31T05:34:43.232Z,99674.84
2023-03-31T05:37:47.590Z,99676.38
2023-03-31T05:40:52.996Z,99668.69
2023-03-31T05:43:56.397Z,99661.84
2023-03-31T05:47:14.106Z,99661.75
2023-03-31T05:50:17.914Z,99662.03
2023-03-31T05:53:22.384Z,99660.41
2023-03-31T05:56:27.732Z,99642.34
2023-03-31T05:59:30.747Z,99649.56
2023-03-31T06:02:34.637Z,99641.13
2023-03-31T06:05:38.263Z,99637.47
2023-03-31T06:08:43.944Z,99633.63
2023-03-31T06:11:49.375Z,99635.97
2023-03-31T06:14:53.400Z,99630.03
2023-03-31T06:17:56.472Z,99636.50
2023-03-31T06:21:00.254Z,99633.91
2023-03-31T06:24:04.847Z,99622.22
2023-03-31T06:27:08.135Z,99617.19
2023-03-31T06:30:12.505Z,99619.25
2023-03-31T06:33:16.462Z,99611.44
2023-03-31T06:36:22.042Z,99618.31
2023-03-31T06:39:28.622Z,99617.44
2023-03-31T06:42:31.830Z,99612.53
2023-03-31T06:45:34.948Z,99603.22
2023-03-31T06:48:37.939Z,99611.97
2023-03-31T06:51:40.917Z,99612.69
2023-03-31T06:54:45.677Z,99610.75
2023-03-31T06:57:48.823Z,99595.13
2023-03-31T07:00:52.864Z,99601.56
2023-03-31T07:03:55.988Z,99592.78
2023-03-31T07:06:59.803Z,99600.47
2023-03-31T07:10:10.430Z,99595.75
2023-03-31T07:13:14.090Z,99595.34
2023-03-31T07:16:17.169Z,99593.13
2023-03-31T07:19:22.964Z,99592.28
2023-03-31T07:22:28.915Z,99585.13
2023-03-31T07:25:35.188Z,99580.72
2023-03-31T07:28:38.329Z,99580.16
2023-03-31T07:31:42.178Z,99576.41
2023-03-31T07:34:45.367Z,99573.03
2023-03-31T07:37:50.616Z,99577.09
2023-03-31T07:41:07.738Z,99572.91
2023-03-31T07:44:12.001Z,99571.56
2023-03-31T07:47:15.295Z,99572.75
2023-03-31T07:50:19.445Z,99561.50
2023-03-31T07:53:27.509Z,99551.38
2023-03-31T07:56:34.733Z,99547.94
2023-03-31T07:59:37.913Z,99549.75
2023-03-31T08:02:42.805Z,99546.88
2023-03-31T08:05:46.143Z,99550.31
2023-03-31T08:08:49.964Z,99533.72
2023-03-31T08:11:54.294Z,99531.25
2023-03-31T08:14:57.248Z,99527.94
2023-03-31T08:18:00.428Z,99523.72
2023-03-31T08:21:03.540Z,99525.56
2023-03-31T08:24:08.431Z,99528.22
2023-03-31T08:27:12.718Z,99524.63
2023-03-31T08:30:16.197Z,99521.03
2023-03-31T08:33:19.469Z,99515.19
2023-03-31T08:36:22.954Z,99514.75
2023-03-31T08:39:27.197Z,99511.84
2023-03-31T08:42:40.692Z,99501.25
2023-03-31T08:45:48.095Z,99489.97
2023-03-31T08:48:54.170Z,99488.16
2023-03-31T08:52:01.081Z,99491.06
2023-03-31T08:55:13.610Z,99486.81
2023-03-31T08:58:33.362Z,99479.97
2023-03-31T09:01:54.515Z,99486.22
2023-03-31T09:05:20.946Z,99476.38
2023-03-31T09:08:36.549Z,99474.41
2023-03-31T09:11:47.169Z,99468.88
2023-03-31T09:14:58.995Z,99463.50
2023-03-31T09:18:18.261Z,99464.94
2023-03-31T09:21:27.502Z,99461.53
2023-03-31T09:24:46.841Z,99453.50
2023-03-31T09:27:51.622Z,99449.59
2023-03-31T09:30:56.680Z,99447.94
2023-03-31T09:34:03.453Z,99438.66
2023-03-31T09:37:06.585Z,99437.63
2023-03-31T09:40:18.491Z,99431.50
2023-03-31T09:43:26.663Z,99421.75
2023-03-31T09:46:34.438Z,99419.47
2023-03-31T09:49:38.779Z,99418.81
2023-03-31T09:52:45.402Z,99409.97
2023-03-31T09:55:57.039Z,99397.19
2023-03-31T09:59:03.386Z,99398.03
2023-03-31T10:02:36.074Z,99398.84
2023-03-31T10:05:41.315Z,99380.78
2023-03-31T10:08:49.363Z,99381.88
2023-03-31T10:11:58.822Z,99374.19
2023-03-31T10:15:21.039Z,99366.50
2023-03-31T10:18:35.788Z,99369.69
2023-03-31T10:21:39.634Z,99373.31
2023-03-31T10:24:45.433Z,99349.72
2023-03-31T10:27:53.371Z,99345.44
2023-03-31T10:31:03.157Z,99346.44
2023-03-31T10:34:11.640Z,99348.75
2023-03-31T10:37:20.363Z,99354.31
2023-03-31T10:40:28.357Z,99349.72
2023-03-31T10:43:39.750Z,99338.09
2023-03-31T10:46:48.722Z,99336.13
2023-03-31T10:49:58.281Z,99338.72
2023-03-31T10:53:07.653Z,99336.63
2023-03-31T10:56:35.048Z,99328.09
2023-03-31T11:00:02.021Z,99324.00
2023-03-31T11:03:46.512Z,99308.63
2023-03-31T11:06:58.465Z,99319.63
2023-03-31T11:10:22.143Z,99323.22
2023-03-31T11:13:34.006Z,99315.03
2023-03-31T11:16:47.817Z,99305.03
2023-03-31T11:20:06.416Z,99298.03
2023-03-31T11:23:19.475Z,99295.25
2023-03-31T11:26:34.752Z,99284.09
2023-03-31T11:29:45.051Z,99271.19
2023-03-31T11:33:04.368Z,99265.13
2023-03-31T11:36:26.140Z,99262.19
2023-03-31T11:39:49.145Z,99253.69
2023-03-31T11:42:56.479Z,99243.50
2023-03-31T11:46:08.133Z,99226.63
2023-03-31T11:49:23.529Z,99223.16
2023-03-31T11:52:30.949Z,99227.91
2023-03-31T11:55:37.248Z,99226.28
2023-03-31T11:58:48.796Z,99225.91
2023-03-31T12:02:02.716Z,99217.06
2023-03-31T12:05:17.227Z,99205.78
2023-03-31T12:08:32.143Z,99205.91
2023-03-31T12:11:42.643Z,99198.59
2023-03-31T12:14:52.807Z,99199.41
2023-03-31T12:18:02.156Z,99202.19
2023-03-31T12:21:07.241Z,99186.13
2023-03-31T12:24:17.035Z,99185.78
2023-03-31T12:27:27.684Z,99183.88
2023-03-31T12:30:37.415Z,99176.50
2023-03-31T12:33:54.575Z,99179.28
2023-03-31T12:37:22.609Z,99166.75
2023-03-31T12:40:56.107Z,99174.63
2023-03-31T12:44:31.153Z,99180.41
2023-03-31T12:48:08.644Z,99182.19
2023-03-31T12:51:46.060Z,99179.53
2023-03-31T12:55:22.756Z,99172.91
2023-03-31T12:58:47.613Z,99171.88
2023-03-31T13:02:29.868Z,99171.53
2023-03-31T13:05:49.726Z,99160.28
2023-03-31T13:09:01.090Z,99153.59
2023-03-31T13:12:11.175Z,99148.44
2023-03-31T13:15:15.733Z,99145.13
2023-03-31T13:18:22.928Z,99136.94
2023-03-31T13:21:28.523Z,99132.88
2023-03-31T13:24:38.431Z,99124.72
2023-03-31T13:27:53.440Z,99122.50
2023-03-31T13:31:05.896Z,99117.72
2023-03-31T13:34:10.320Z,99118.50
2023-03-31T13:37:24.084Z,99113.28
2023-03-31T13:40:51.708Z,99114.81
2023-03-31T13:44:21.652Z,99111.31
2023-03-31T13:48:06.501Z,99106.53
2023-03-31T13:51:43.938Z,99112.31
2023-03-31T13:55:41.068Z,99105.41
2023-03-31T13:59:07.169Z,99100.56
2023-03-31T14:02:44.202Z,99095.59
2023-03-31T14:05:58.331Z,99102.59
2023-03-31T14:09:07.803Z,99097.59
2023-03-31T14:12:23.172Z,99097.91
2023-03-31T14:15:26.344Z,99100.66
2023-03-31T14:18:33.598Z,99094.13
2023-03-31T14:21:43.685Z,99093.50
2023-03-31T14:24:56.427Z,99099.13
2023-03-31T14:28:32.477Z,99102.75
2023-03-31T14:31:41.443Z,99097.84
2023-03-31T14:34:58.142Z,99096.00
2023-03-31T14:38:05.383Z,99095.69
2023-03-31T14:41:21.178Z,99098.75
2023-03-31T14:44:26.693Z,99095.00
2023-03-31T14:47:32.023Z,99092.03
2023-03-31T14:50:36.517Z,99091.44
2023-03-31T14:53:39.915Z,99079.09
2023-03-31T14:56:46.034Z,99085.25
2023-03-31T14:59:51.919Z,99085.03
2023-03-31T15:02:56.289Z,99078.81
2023-03-31T15:06:04.903Z,99081.47
2023-03-31T15:09:11.301Z,99081.84
2023-03-31T15:12:16.958Z,99077.16
2023-03-31T15:15:21.453Z,99077.81
2023-03-31T15:18:27.950Z,99074.84
2023-03-31T15:21:37.461Z,99072.78
2023-03-31T15:24:40.899Z,99070.16
2023-03-31T15:27:51.293Z,99064.66
2023-03-31T15:31:06.929Z,99067.34
2023-03-31T15:34:16.525Z,99078.63
2023-03-31T15:37:27.891Z,99071.13
2023-03-31T15:40:37.022Z,99069.94
2023-03-31T15:43:49.027Z,99063.00
2023-03-31T15:47:00.611Z,99068.91
2023-03-31T15:50:13.879Z,99067.94
2023-03-31T15:53:37.327Z,99061.38
2023-03-31T15:56:45.467Z,99055.97
2023-03-31T15:59:55.771Z,99055.69
2023-03-31T16:03:01.875Z,99051.28
2023-03-31T16:06:09.025Z,99050.97
2023-03-31T16:09:17.399Z,99048.34
2023-03-31T16:12:24.492Z,99047.56
2023-03-31T16:15:36.256Z,99046.69
2023-03-31T16:18:43.442Z,99044.72
2023-03-31T16:21:52.555Z,99047.00
2023-03-31T16:24:58.262Z,99048.44
2023-03-31T16:28:02.785Z,99052.16
2023-03-31T16:31:35.500Z,99052.16
2023-03-31T16:34:54.510Z,99051.78
2023-03-31T16:38:01.645Z,99046.97
2023-03-31T16:41:07.588Z,99046.16
2023-03-31T16:44:12.519Z,99052.09
2023-03-31T16:47:34.032Z,99058.56
2023-03-31T16:50:38.394Z,99054.25
2023-03-31T16:53:41.892Z,99056.09
2023-03-31T16:56:45.702Z,99059.38
2023-03-31T16:59:49.534Z,99065.94
2023-03-31T17:02:54.677Z,99053.59
2023-03-31T17:05:59.582Z,99055.59
2023-03-31T17:09:02.944Z,99062.97
2023-03-31T17:12:06.481Z,99067.34
2023-03-31T17:15:13.998Z,99065.25
2023-03-31T17:18:18.483Z,99072.91
2023-03-31T17:21:22.143Z,99069.66
2023-03-31T17:24:25.335Z,99069.81
2023-03-31T17:27:30.873Z,99077.22
2023-03-31T17:30:38.656Z,99072.56
2023-03-31T17:33:46.667Z,99076.09
2023-03-31T17:36:52.265Z,99067.78
2023-03-31T17:39:56.326Z,99067.41
2023-03-31T17:42:59.898Z,99063.03
2023-03-31T17:46:04.209Z,99063.69
2023-03-31T17:49:12.611Z,99057.28
2023-03-31T17:52:15.705Z,99057.50
2023-03-31T17:55:19.169Z,99054.56
2023-03-31T17:58:23.337Z,99066.28
2023-03-31T18:01:27.314Z,99065.25
2023-03-31T18:04:32.206Z,99060.44
2023-03-31T18:07:38.557Z,99068.66
2023-03-31T18:10:42.896Z,99074.31
2023-03-31T18:13:46.130Z,99066.06
2023-03-31T18:16:49.187Z,99071.03
2023-03-31T18:19:53.479Z,99068.13
2023-03-31T18:22:56.403Z,99070.88
2023-03-31T18:25:59.656Z,99062.56
2023-03-31T18:29:03.457Z,99061.34
2023-03-31T18:32:06.671Z,99061.88
2023-03-31T18:35:11.691Z,99069.63
2023-03-31T18:38:16.475Z,99071.63
2023-03-31T18:41:20.051Z,99062.88
2023-03-31T18:44:23.212Z,99067.47
2023-03-31T18:47:29.359Z,99068.13
2023-03-31T18:50:34.017Z,99059.66
2023-03-31T18:53:40.213Z,99062.69
2023-03-31T18:56:43.794Z,99062.88
2023-03-31T18:59:47.049Z,99069.41
2023-03-31T19:02:50.214Z,99064.88
2023-03-31T19:06:01.618Z,99065.47
2023-03-31T19:09:06.150Z,99069.03
2023-03-31T19:12:09.148Z,99067.63
2023-03-31T19:15:12.375Z,99065.84
2023-03-31T19:18:16.512Z,99072.72
2023-03-31T19:21:21.936Z,99063.84
2023-03-31T19:24:25.554Z,99073.44
2023-03-31T19:27:28.543Z,99078.75
2023-03-31T19:30:34.093Z,99075.22
2023-03-31T19:33:37.423Z,99074.25
2023-03-31T19:36:41.664Z,99074.91
2023-03-31T19:39:44.568Z,99080.75
2023-03-31T19:42:47.580Z,99076.53
2023-03-31T19:45:53.211Z,99076.69
2023-03-31T19:48:56.637Z,99076.53
2023-03-31T19:52:00.929Z,99077.50
2023-03-31T19:55:04.936Z,99079.81
2023-03-31T19:58:07.918Z,99084.25
2023-03-31T20:01:17.769Z,99089.84
2023-03-31T20:04:20.977Z,99073.47
2023-03-31T20:07:25.961Z,99077.00
2023-03-31T20:10:29.266Z,99076.09
2023-03-31T20:13:35.678Z,99065.91
2023-03-31T20:16:38.704Z,99068.13
2023-03-31T20:19:42.040Z,99066.22
2023-03-31T20:22:46.685Z,99061.00
2023-03-31T20:25:49.616Z,99062.38
2023-03-31T20:28:55.909Z,99066.06
2023-03-31T20:31:59.023Z,99065.09
2023-03-31T20:35:02.615Z,99065.34
2023-03-31T20:38:07.256Z,99065.91
2023-03-31T20:41:10.972Z,99062.47
2023-03-31T20:44:15.881Z,99066.72
2023-03-31T20:47:19.174Z,99068.66
2023-03-31T20:50:22.988Z,99059.88
2023-03-31T20:53:27.324Z,99055.50
2023-03-31T20:56:32.739Z,99053.31
2023-03-31T20:59:35.815Z,99062.63
2023-03-31T21:02:39.701Z,99068.94
2023-03-31T21:05:44.119Z,99064.41
2023-03-31T21:08:53.402Z,99061.53
2023-03-31T21:11:56.385Z,99064.28
2023-03-31T21:14:59.337Z,99066.22
2023-03-31T21:18:02.308Z,99070.47
2023-03-31T21:21:08.430Z,99069.34
2023-03-31T21:24:14.286Z,99076.63
2023-03-31T21:27:17.280Z,99075.28
2023-03-31T21:30:21.366Z,99080.47
2023-03-31T21:33:28.756Z,99078.84
2023-03-31T21:36:31.814Z,99082.69
2023-03-31T21:39:36.207Z,99079.41
2023-03-31T21:42:39.353Z,99078.72
2023-03-31T21:45:42.940Z,99083.00
2023-03-31T21:48:48.594Z,99086.53
2023-03-31T21:51:51.746Z,99089.59
2023-03-31T21:54:56.273Z,99084.81
2023-03-31T21:57:59.814Z,99087.03
2023-03-31T22:01:05.175Z,99088.53
2023-03-31T22:04:09.137Z,99089.38
2023-03-31T22:07:14.326Z,99094.69
2023-03-31T22:10:18.955Z,99093.19
2023-03-31T22:13:23.972Z,99097.03
2023-03-31T22:16:27.107Z,99099.47
2023-03-31T22:19:31.644Z,99103.63
2023-03-31T22:22:36.244Z,99102.38
2023-03-31T22:25:40.761Z,99095.97
2023-03-31T22:28:43.824Z,99097.59
2023-03-31T22:31:46.968Z,99097.88
2023-03-31T22:34:50.504Z,99098.19
2023-03-31T22:37:53.794Z,99104.31
2023-03-31T22:40:58.271Z,99101.44
2023-03-31T22:44:01.274Z,99101.44
2023-03-31T22:47:04.349Z,99105.81
2023-03-31T22:50:08.525Z,99099.81
2023-03-31T22:53:11.784Z,99112.09
2023-03-31T22:56:16.179Z,99113.66
2023-03-31T22:59:19.656Z,99115.69
2023-03-31T23:02:22.864Z,99112.09
2023-03-31T23:05:25.900Z,99115.41
2023-03-31T23:08:32.008Z,99117.31
2023-03-31T23:11:36.322Z,99114.03
2023-03-31T23:14:39.622Z,99117.88
2023-03-31T23:17:42.679Z,99120.88
2023-03-31T23:20:46.602Z,99124.16
2023-03-31T23:23:53.863Z,99115.97
2023-03-31T23:26:58.248Z,99119.50
2023-03-31T23:30:01.402Z,99114.59
2023-03-31T23:33:04.597Z,99115.44
2023-03-31T23:36:09.249Z,99117.22
2023-03-31T23:39:13.150Z,99118.44
2023-03-31T23:42:20.550Z,99120.63
2023-03-31T23:45:23.865Z,99115.03
2023-03-31T23:48:26.995Z,99118.75
2023-03-31T23:51:30.472Z,99113.53
2023-03-31T23:54:33.641Z,99114.63
2023-03-31T23:57:38.163Z,99122.56
